sensor_id;sensor_type;location;lat;lon;timestamp;temperature;humidity
69938;DHT22;57248;47.320;15.998;2023-04-29T00:00:21;9.98;93.53
69938;DHT22;57248;47.320;15.998;2023-04-29T00:02:53;10.04;92.49
69938;DHT22;57248;47.320;15.998;2023-04-29T00:05:32;10.04;92.70
69938;DHT22;57248;47.320;15.998;2023-04-29T00:08:04;10.04;93.48
69938;DHT22;57248;47.320;15.998;2023-04-29T00:10:36;10.02;92.79
69938;DHT22;57248;47.320;15.998;2023-04-29T00:13:08;9.82;95.27
69938;DHT22;57248;47.320;15.998;2023-04-29T00:15:41;9.90;95.03
69938;DHT22;57248;47.320;15.998;2023-04-29T00:18:06;9.88;95.04
69938;DHT22;57248;47.320;15.998;2023-04-29T00:20:39;9.97;93.98
69938;DHT22;57248;47.320;15.998;2023-04-29T00:23:11;9.95;92.81
69938;DHT22;57248;47.320;15.998;2023-04-29T00:25:43;9.94;93.07
69938;DHT22;57248;47.320;15.998;2023-04-29T00:28:09;9.95;93.06
69938;DHT22;57248;47.320;15.998;2023-04-29T00:30:40;9.90;94.51
69938;DHT22;57248;47.320;15.998;2023-04-29T00:33:12;9.81;95.42
69938;DHT22;57248;47.320;15.998;2023-04-29T00:35:44;9.87;94.61
69938;DHT22;57248;47.320;15.998;2023-04-29T00:38:17;9.91;94.43
69938;DHT22;57248;47.320;15.998;2023-04-29T00:40:50;9.90;94.09
69938;DHT22;57248;47.320;15.998;2023-04-29T00:43:15;9.88;94.12
69938;DHT22;57248;47.320;15.998;2023-04-29T00:45:47;9.75;94.30
69938;DHT22;57248;47.320;15.998;2023-04-29T00:48:19;9.73;94.76
69938;DHT22;57248;47.320;15.998;2023-04-29T00:50:45;9.75;95.02
69938;DHT22;57248;47.320;15.998;2023-04-29T00:53:16;9.73;94.96
69938;DHT22;57248;47.320;15.998;2023-04-29T00:55:49;9.70;95.66
69938;DHT22;57248;47.320;15.998;2023-04-29T00:58:23;9.64;96.21
69938;DHT22;57248;47.320;15.998;2023-04-29T01:01:01;9.75;94.82
69938;DHT22;57248;47.320;15.998;2023-04-29T01:03:37;9.65;95.87
69938;DHT22;57248;47.320;15.998;2023-04-29T01:12:41;9.71;94.87
69938;DHT22;57248;47.320;15.998;2023-04-29T01:15:28;9.69;95.07
69938;DHT22;57248;47.320;15.998;2023-04-29T01:18:19;9.64;95.45
69938;DHT22;57248;47.320;15.998;2023-04-29T01:20:56;9.57;95.70
69938;DHT22;57248;47.320;15.998;2023-04-29T01:23:29;9.51;95.56
69938;DHT22;57248;47.320;15.998;2023-04-29T01:26:01;9.55;95.25
69938;DHT22;57248;47.320;15.998;2023-04-29T01:29:20;9.39;94.99
69938;DHT22;57248;47.320;15.998;2023-04-29T01:32:04;9.18;95.21
69938;DHT22;57248;47.320;15.998;2023-04-29T01:40:48;9.16;94.10
69938;DHT22;57248;47.320;15.998;2023-04-29T01:43:29;9.06;94.22
69938;DHT22;57248;47.320;15.998;2023-04-29T01:46:15;9.08;93.50
69938;DHT22;57248;47.320;15.998;2023-04-29T01:48:53;8.72;95.10
69938;DHT22;57248;47.320;15.998;2023-04-29T01:51:25;8.72;95.72
69938;DHT22;57248;47.320;15.998;2023-04-29T01:53:58;8.75;95.62
69938;DHT22;57248;47.320;15.998;2023-04-29T01:56:30;8.79;96.13
69938;DHT22;57248;47.320;15.998;2023-04-29T01:59:19;8.81;96.18
69938;DHT22;57248;47.320;15.998;2023-04-29T02:02:11;8.91;95.38
69938;DHT22;57248;47.320;15.998;2023-04-29T02:05:06;8.95;94.72
69938;DHT22;57248;47.320;15.998;2023-04-29T02:07:48;8.93;94.55
69938;DHT22;57248;47.320;15.998;2023-04-29T02:10:21;8.98;94.05
69938;DHT22;57248;47.320;15.998;2023-04-29T02:12:50;8.85;95.73
69938;DHT22;57248;47.320;15.998;2023-04-29T02:15:25;8.91;95.45
69938;DHT22;57248;47.320;15.998;2023-04-29T02:17:57;8.93;95.05
69938;DHT22;57248;47.320;15.998;2023-04-29T02:20:29;8.95;95.11
69938;DHT22;57248;47.320;15.998;2023-04-29T02:23:04;8.89;95.97
69938;DHT22;57248;47.320;15.998;2023-04-29T02:25:35;8.95;95.79
69938;DHT22;57248;47.320;15.998;2023-04-29T02:28:07;8.95;95.94
69938;DHT22;57248;47.320;15.998;2023-04-29T02:30:40;8.99;96.08
69938;DHT22;57248;47.320;15.998;2023-04-29T02:33:12;9.01;95.24
69938;DHT22;57248;47.320;15.998;2023-04-29T02:35:44;8.95;95.60
69938;DHT22;57248;47.320;15.998;2023-04-29T02:38:16;8.88;96.40
69938;DHT22;57248;47.320;15.998;2023-04-29T02:40:48;8.88;96.45
69938;DHT22;57248;47.320;15.998;2023-04-29T02:43:20;8.85;96.67
69938;DHT22;57248;47.320;15.998;2023-04-29T02:45:52;8.91;95.77
69938;DHT22;57248;47.320;15.998;2023-04-29T02:48:18;8.92;95.82
69938;DHT22;57248;47.320;15.998;2023-04-29T02:50:50;8.91;95.85
69938;DHT22;57248;47.320;15.998;2023-04-29T02:53:23;8.89;95.37
69938;DHT22;57248;47.320;15.998;2023-04-29T02:55:55;8.81;95.27
69938;DHT22;57248;47.320;15.998;2023-04-29T02:58:27;8.74;94.35
69938;DHT22;57248;47.320;15.998;2023-04-29T03:00:59;8.58;95.64
69938;DHT22;57248;47.320;15.998;2023-04-29T03:03:31;8.54;95.26
69938;DHT22;57248;47.320;15.998;2023-04-29T03:06:04;8.54;94.90
69938;DHT22;57248;47.320;15.998;2023-04-29T03:08:44;8.51;94.36
69938;DHT22;57248;47.320;15.998;2023-04-29T03:11:17;8.41;94.19
69938;DHT22;57248;47.320;15.998;2023-04-29T03:13:48;8.40;94.36
69938;DHT22;57248;47.320;15.998;2023-04-29T03:16:20;8.43;94.58
69938;DHT22;57248;47.320;15.998;2023-04-29T03:18:52;8.36;95.70
69938;DHT22;57248;47.320;15.998;2023-04-29T03:21:24;8.45;95.84
69938;DHT22;57248;47.320;15.998;2023-04-29T03:23:58;8.47;95.87
69938;DHT22;57248;47.320;15.998;2023-04-29T03:26:32;8.54;95.71
69938;DHT22;57248;47.320;15.998;2023-04-29T03:29:04;8.48;95.89
69938;DHT22;57248;47.320;15.998;2023-04-29T03:31:31;8.50;95.60
69938;DHT22;57248;47.320;15.998;2023-04-29T03:34:04;8.51;96.20
69938;DHT22;57248;47.320;15.998;2023-04-29T03:36:39;8.57;95.89
69938;DHT22;57248;47.320;15.998;2023-04-29T03:39:11;8.54;95.28
69938;DHT22;57248;47.320;15.998;2023-04-29T03:41:43;8.45;96.24
69938;DHT22;57248;47.320;15.998;2023-04-29T03:44:15;8.45;96.88
69938;DHT22;57248;47.320;15.998;2023-04-29T03:46:47;8.41;96.90
69938;DHT22;57248;47.320;15.998;2023-04-29T03:49:13;8.37;96.56
69938;DHT22;57248;47.320;15.998;2023-04-29T03:51:45;8.36;97.08
69938;DHT22;57248;47.320;15.998;2023-04-29T03:54:17;8.45;96.12
69938;DHT22;57248;47.320;15.998;2023-04-29T03:56:50;8.50;95.41
69938;DHT22;57248;47.320;15.998;2023-04-29T03:59:22;8.41;95.59
69938;DHT22;57248;47.320;15.998;2023-04-29T04:01:53;8.41;95.61
69938;DHT22;57248;47.320;15.998;2023-04-29T04:04:32;8.45;95.79
69938;DHT22;57248;47.320;15.998;2023-04-29T04:07:04;8.40;95.83
69938;DHT22;57248;47.320;15.998;2023-04-29T04:09:56;8.34;96.08
69938;DHT22;57248;47.320;15.998;2023-04-29T04:12:29;8.45;95.41
69938;DHT22;57248;47.320;15.998;2023-04-29T04:15:01;8.57;94.98
69938;DHT22;57248;47.320;15.998;2023-04-29T04:17:34;8.68;94.11
69938;DHT22;57248;47.320;15.998;2023-04-29T04:20:07;8.86;93.28
69938;DHT22;57248;47.320;15.998;2023-04-29T04:22:32;8.95;93.83
69938;DHT22;57248;47.320;15.998;2023-04-29T04:25:18;9.06;93.99
69938;DHT22;57248;47.320;15.998;2023-04-29T04:27:53;9.18;93.23
69938;DHT22;57248;47.320;15.998;2023-04-29T04:30:46;9.24;94.05
69938;DHT22;57248;47.320;15.998;2023-04-29T04:33:19;9.32;93.66
69938;DHT22;57248;47.320;15.998;2023-04-29T04:35:50;9.54;92.83
69938;DHT22;57248;47.320;15.998;2023-04-29T04:38:22;9.75;92.48
69938;DHT22;57248;47.320;15.998;2023-04-29T04:40:55;9.87;92.73
69938;DHT22;57248;47.320;15.998;2023-04-29T04:43:36;10.15;91.97
69938;DHT22;57248;47.320;15.998;2023-04-29T04:46:17;10.36;90.72
69938;DHT22;57248;47.320;15.998;2023-04-29T04:49:11;10.73;90.27
69938;DHT22;57248;47.320;15.998;2023-04-29T04:51:48;10.90;89.94
69938;DHT22;57248;47.320;15.998;2023-04-29T04:54:20;11.00;89.82
69938;DHT22;57248;47.320;15.998;2023-04-29T04:57:03;11.75;90.54
69938;DHT22;57248;47.320;15.998;2023-04-29T04:59:36;14.38;87.37
69938;DHT22;57248;47.320;15.998;2023-04-29T05:02:08;12.36;85.87
69938;DHT22;57248;47.320;15.998;2023-04-29T05:04:40;12.03;87.01
69938;DHT22;57248;47.320;15.998;2023-04-29T05:07:24;12.13;87.71
69938;DHT22;57248;47.320;15.998;2023-04-29T05:10:02;12.01;86.75
69938;DHT22;57248;47.320;15.998;2023-04-29T05:12:42;12.57;85.67
69938;DHT22;57248;47.320;15.998;2023-04-29T05:15:14;12.74;84.48
69938;DHT22;57248;47.320;15.998;2023-04-29T05:17:50;13.23;83.37
69938;DHT22;57248;47.320;15.998;2023-04-29T05:20:23;13.66;82.34
69938;DHT22;57248;47.320;15.998;2023-04-29T05:22:56;14.18;81.10
69938;DHT22;57248;47.320;15.998;2023-04-29T05:25:31;14.38;79.33
69938;DHT22;57248;47.320;15.998;2023-04-29T05:28:06;14.83;78.63
69938;DHT22;57248;47.320;15.998;2023-04-29T05:30:40;15.49;76.17
69938;DHT22;57248;47.320;15.998;2023-04-29T05:33:13;15.73;76.62
69938;DHT22;57248;47.320;15.998;2023-04-29T05:35:45;15.51;74.98
69938;DHT22;57248;47.320;15.998;2023-04-29T05:38:18;15.00;74.54
69938;DHT22;57248;47.320;15.998;2023-04-29T05:41:01;14.76;75.05
69938;DHT22;57248;47.320;15.998;2023-04-29T05:43:46;14.25;77.83
69938;DHT22;57248;47.320;15.998;2023-04-29T05:46:18;15.49;74.77
69938;DHT22;57248;47.320;15.998;2023-04-29T05:48:50;15.06;74.66
69938;DHT22;57248;47.320;15.998;2023-04-29T05:51:24;15.69;74.82
69938;DHT22;57248;47.320;15.998;2023-04-29T05:53:57;15.70;72.93
69938;DHT22;57248;47.320;15.998;2023-04-29T05:56:30;15.79;74.61
69938;DHT22;57248;47.320;15.998;2023-04-29T05:58:56;16.09;71.41
69938;DHT22;57248;47.320;15.998;2023-04-29T06:01:28;16.18;72.25
69938;DHT22;57248;47.320;15.998;2023-04-29T06:04:07;16.51;69.26
69938;DHT22;57248;47.320;15.998;2023-04-29T06:07:01;16.75;69.39
69938;DHT22;57248;47.320;15.998;2023-04-29T06:10:00;16.51;68.05
69938;DHT22;57248;47.320;15.998;2023-04-29T06:12:33;16.18;70.17
69938;DHT22;57248;47.320;15.998;2023-04-29T06:15:06;17.11;69.49
69938;DHT22;57248;47.320;15.998;2023-04-29T06:17:38;17.15;68.87
69938;DHT22;57248;47.320;15.998;2023-04-29T06:20:11;17.60;67.32
69938;DHT22;57248;47.320;15.998;2023-04-29T06:22:42;17.94;66.38
69938;DHT22;57248;47.320;15.998;2023-04-29T06:25:15;18.35;66.58
69938;DHT22;57248;47.320;15.998;2023-04-29T06:27:49;18.09;65.80
69938;DHT22;57248;47.320;15.998;2023-04-29T06:30:18;18.09;65.62
69938;DHT22;57248;47.320;15.998;2023-04-29T06:32:49;19.51;66.15
69938;DHT22;57248;47.320;15.998;2023-04-29T06:35:22;18.09;63.68
69938;DHT22;57248;47.320;15.998;2023-04-29T06:37:58;18.65;62.69
69938;DHT22;57248;47.320;15.998;2023-04-29T06:40:41;18.45;63.88
69938;DHT22;57248;47.320;15.998;2023-04-29T06:43:32;19.11;63.40
69938;DHT22;57248;47.320;15.998;2023-04-29T06:46:24;18.70;61.54
69938;DHT22;57248;47.320;15.998;2023-04-29T06:49:07;18.96;60.92
69938;DHT22;57248;47.320;15.998;2023-04-29T06:51:40;20.50;59.17
69938;DHT22;57248;47.320;15.998;2023-04-29T06:54:13;20.84;55.52
69938;DHT22;57248;47.320;15.998;2023-04-29T06:56:48;20.61;55.61
69938;DHT22;57248;47.320;15.998;2023-04-29T06:59:20;20.29;58.52
69938;DHT22;57248;47.320;15.998;2023-04-29T07:01:52;20.48;58.11
69938;DHT22;57248;47.320;15.998;2023-04-29T07:04:31;19.28;58.71
69938;DHT22;57248;47.320;15.998;2023-04-29T07:07:03;20.19;58.41
69938;DHT22;57248;47.320;15.998;2023-04-29T07:09:42;19.35;58.57
69938;DHT22;57248;47.320;15.998;2023-04-29T07:12:14;18.99;57.68
69938;DHT22;57248;47.320;15.998;2023-04-29T07:14:46;20.02;56.72
69938;DHT22;57248;47.320;15.998;2023-04-29T07:17:18;20.12;57.56
69938;DHT22;57248;47.320;15.998;2023-04-29T07:19:52;20.30;56.44
69938;DHT22;57248;47.320;15.998;2023-04-29T07:22:17;21.60;53.89
69938;DHT22;57248;47.320;15.998;2023-04-29T07:24:52;21.66;53.31
69938;DHT22;57248;47.320;15.998;2023-04-29T07:27:25;20.64;54.80
69938;DHT22;57248;47.320;15.998;2023-04-29T07:29:58;21.01;54.10
69938;DHT22;57248;47.320;15.998;2023-04-29T07:32:31;21.35;55.21
69938;DHT22;57248;47.320;15.998;2023-04-29T07:35:04;21.42;54.49
69938;DHT22;57248;47.320;15.998;2023-04-29T07:37:30;21.80;54.01
69938;DHT22;57248;47.320;15.998;2023-04-29T07:40:03;21.96;54.41
69938;DHT22;57248;47.320;15.998;2023-04-29T07:42:38;22.32;53.31
69938;DHT22;57248;47.320;15.998;2023-04-29T07:45:11;22.73;51.03
69938;DHT22;57248;47.320;15.998;2023-04-29T07:47:44;21.86;51.96
69938;DHT22;57248;47.320;15.998;2023-04-29T07:50:10;21.61;51.66
69938;DHT22;57248;47.320;15.998;2023-04-29T07:52:43;21.01;53.15
69938;DHT22;57248;47.320;15.998;2023-04-29T07:55:16;22.29;53.62
69938;DHT22;57248;47.320;15.998;2023-04-29T07:57:51;23.51;49.69
69938;DHT22;57248;47.320;15.998;2023-04-29T08:00:23;23.40;48.30
69938;DHT22;57248;47.320;15.998;2023-04-29T08:03:03;22.29;52.72
69938;DHT22;57248;47.320;15.998;2023-04-29T08:05:43;23.23;50.47
69938;DHT22;57248;47.320;15.998;2023-04-29T08:08:17;24.71;46.37
69938;DHT22;57248;47.320;15.998;2023-04-29T08:10:50;22.95;49.06
69938;DHT22;57248;47.320;15.998;2023-04-29T08:13:21;24.80;46.03
69938;DHT22;57248;47.320;15.998;2023-04-29T08:15:53;25.17;46.51
69938;DHT22;57248;47.320;15.998;2023-04-29T08:18:25;24.41;45.73
69938;DHT22;57248;47.320;15.998;2023-04-29T08:20:58;25.76;44.59
69938;DHT22;57248;47.320;15.998;2023-04-29T08:23:30;27.22;43.44
69938;DHT22;57248;47.320;15.998;2023-04-29T08:26:03;25.19;44.35
69938;DHT22;57248;47.320;15.998;2023-04-29T08:28:35;25.70;43.96
69938;DHT22;57248;47.320;15.998;2023-04-29T08:31:02;25.90;44.85
69938;DHT22;57248;47.320;15.998;2023-04-29T08:33:37;25.85;42.11
69938;DHT22;57248;47.320;15.998;2023-04-29T08:36:09;24.30;45.94
69938;DHT22;57248;47.320;15.998;2023-04-29T08:38:42;22.10;48.11
69938;DHT22;57248;47.320;15.998;2023-04-29T08:41:14;21.01;52.31
69938;DHT22;57248;47.320;15.998;2023-04-29T08:43:47;20.81;54.63
69938;DHT22;57248;47.320;15.998;2023-04-29T08:46:20;21.87;52.13
69938;DHT22;57248;47.320;15.998;2023-04-29T08:48:52;21.83;51.24
69938;DHT22;57248;47.320;15.998;2023-04-29T08:51:25;20.39;52.22
69938;DHT22;57248;47.320;15.998;2023-04-29T08:53:59;19.97;53.12
69938;DHT22;57248;47.320;15.998;2023-04-29T08:56:31;19.30;55.63
69938;DHT22;57248;47.320;15.998;2023-04-29T08:59:20;19.32;54.51
69938;DHT22;57248;47.320;15.998;2023-04-29T09:01:55;19.31;56.61
69938;DHT22;57248;47.320;15.998;2023-04-29T09:04:48;18.48;61.22
69938;DHT22;57248;47.320;15.998;2023-04-29T09:07:25;18.24;62.66
69938;DHT22;57248;47.320;15.998;2023-04-29T09:09:58;19.75;62.18
69938;DHT22;57248;47.320;15.998;2023-04-29T09:12:30;19.96;59.51
69938;DHT22;57248;47.320;15.998;2023-04-29T09:15:03;21.38;60.95
69938;DHT22;57248;47.320;15.998;2023-04-29T09:17:42;21.19;59.56
69938;DHT22;57248;47.320;15.998;2023-04-29T09:22:55;22.90;56.60
69938;DHT22;57248;47.320;15.998;2023-04-29T09:25:28;23.92;53.58
69938;DHT22;57248;47.320;15.998;2023-04-29T09:28:14;28.80;44.31
69938;DHT22;57248;47.320;15.998;2023-04-29T09:30:47;26.25;46.95
69938;DHT22;57248;47.320;15.998;2023-04-29T09:33:21;27.19;46.11
69938;DHT22;57248;47.320;15.998;2023-04-29T09:35:53;27.00;42.57
69938;DHT22;57248;47.320;15.998;2023-04-29T09:38:24;31.25;39.88
69938;DHT22;57248;47.320;15.998;2023-04-29T09:40:56;30.69;40.24
69938;DHT22;57248;47.320;15.998;2023-04-29T09:43:28;33.87;36.39
69938;DHT22;57248;47.320;15.998;2023-04-29T09:46:00;34.13;36.79
69938;DHT22;57248;47.320;15.998;2023-04-29T09:48:33;34.56;32.92
69938;DHT22;57248;47.320;15.998;2023-04-29T09:51:04;33.35;33.39
69938;DHT22;57248;47.320;15.998;2023-04-29T09:53:36;32.44;34.78
69938;DHT22;57248;47.320;15.998;2023-04-29T09:56:09;32.28;34.71
69938;DHT22;57248;47.320;15.998;2023-04-29T09:58:41;31.36;34.27
69938;DHT22;57248;47.320;15.998;2023-04-29T10:01:14;33.10;31.61
69938;DHT22;57248;47.320;15.998;2023-04-29T10:03:51;33.17;34.27
69938;DHT22;57248;47.320;15.998;2023-04-29T10:06:34;34.00;32.74
69938;DHT22;57248;47.320;15.998;2023-04-29T10:09:07;33.10;31.16
69938;DHT22;57248;47.320;15.998;2023-04-29T10:11:39;32.99;34.41
69938;DHT22;57248;47.320;15.998;2023-04-29T10:14:14;35.66;30.70
69938;DHT22;57248;47.320;15.998;2023-04-29T10:16:57;38.42;28.93
69938;DHT22;57248;47.320;15.998;2023-04-29T10:19:32;37.22;27.45
69938;DHT22;57248;47.320;15.998;2023-04-29T10:22:08;34.52;30.75
69938;DHT22;57248;47.320;15.998;2023-04-29T10:24:41;33.19;31.66
69938;DHT22;57248;47.320;15.998;2023-04-29T10:27:16;31.63;32.61
69938;DHT22;57248;47.320;15.998;2023-04-29T10:29:51;34.82;31.74
69938;DHT22;57248;47.320;15.998;2023-04-29T10:32:24;28.43;39.27
69938;DHT22;57248;47.320;15.998;2023-04-29T10:35:00;27.91;38.36
69938;DHT22;57248;47.320;15.998;2023-04-29T10:37:33;28.26;38.92
69938;DHT22;57248;47.320;15.998;2023-04-29T10:42:48;29.24;37.77
69938;DHT22;57248;47.320;15.998;2023-04-29T10:45:26;27.74;39.50
69938;DHT22;57248;47.320;15.998;2023-04-29T10:50:39;30.37;35.34
69938;DHT22;57248;47.320;15.998;2023-04-29T10:53:17;26.08;42.72
69938;DHT22;57248;47.320;15.998;2023-04-29T10:55:59;30.10;36.52
69938;DHT22;57248;47.320;15.998;2023-04-29T10:58:44;31.97;34.81
69938;DHT22;57248;47.320;15.998;2023-04-29T11:01:16;27.42;39.80
69938;DHT22;57248;47.320;15.998;2023-04-29T11:03:54;31.29;35.23
69938;DHT22;57248;47.320;15.998;2023-04-29T11:06:39;30.89;34.96
69938;DHT22;57248;47.320;15.998;2023-04-29T11:09:26;29.95;36.19
69938;DHT22;57248;47.320;15.998;2023-04-29T11:15:05;26.47;40.36
69938;DHT22;57248;47.320;15.998;2023-04-29T11:17:39;24.76;44.99
69938;DHT22;57248;47.320;15.998;2023-04-29T11:20:14;25.21;43.79
69938;DHT22;57248;47.320;15.998;2023-04-29T11:22:50;24.78;47.37
69938;DHT22;57248;47.320;15.998;2023-04-29T11:25:24;29.17;38.04
69938;DHT22;57248;47.320;15.998;2023-04-29T11:27:57;29.98;35.37
69938;DHT22;57248;47.320;15.998;2023-04-29T11:30:30;29.38;36.38
69938;DHT22;57248;47.320;15.998;2023-04-29T11:33:01;28.26;39.36
69938;DHT22;57248;47.320;15.998;2023-04-29T11:35:34;27.07;41.01
69938;DHT22;57248;47.320;15.998;2023-04-29T11:38:10;29.51;39.69
69938;DHT22;57248;47.320;15.998;2023-04-29T11:40:49;29.83;36.57
69938;DHT22;57248;47.320;15.998;2023-04-29T11:43:22;32.38;34.56
69938;DHT22;57248;47.320;15.998;2023-04-29T11:45:53;33.81;28.03
69938;DHT22;57248;47.320;15.998;2023-04-29T11:48:25;37.41;26.53
69938;DHT22;57248;47.320;15.998;2023-04-29T11:50:58;37.79;26.49
69938;DHT22;57248;47.320;15.998;2023-04-29T11:53:31;35.72;26.86
69938;DHT22;57248;47.320;15.998;2023-04-29T11:56:03;34.26;26.57
69938;DHT22;57248;47.320;15.998;2023-04-29T11:58:36;34.00;28.35
69938;DHT22;57248;47.320;15.998;2023-04-29T12:01:08;36.00;25.26
69938;DHT22;57248;47.320;15.998;2023-04-29T12:03:42;36.99;24.93
69938;DHT22;57248;47.320;15.998;2023-04-29T12:06:15;38.76;24.03
69938;DHT22;57248;47.320;15.998;2023-04-29T12:08:54;33.82;27.01
69938;DHT22;57248;47.320;15.998;2023-04-29T12:11:32;34.73;26.70
69938;DHT22;57248;47.320;15.998;2023-04-29T12:14:05;31.32;27.35
69938;DHT22;57248;47.320;15.998;2023-04-29T12:16:38;35.07;25.72
69938;DHT22;57248;47.320;15.998;2023-04-29T12:19:05;35.58;25.54
69938;DHT22;57248;47.320;15.998;2023-04-29T12:21:47;35.74;26.69
69938;DHT22;57248;47.320;15.998;2023-04-29T12:24:20;39.26;21.64
69938;DHT22;57248;47.320;15.998;2023-04-29T12:26:55;34.71;23.84
69938;DHT22;57248;47.320;15.998;2023-04-29T12:29:27;34.94;24.76
69938;DHT22;57248;47.320;15.998;2023-04-29T12:32:01;38.16;23.35
69938;DHT22;57248;47.320;15.998;2023-04-29T12:34:35;37.77;22.96
69938;DHT22;57248;47.320;15.998;2023-04-29T12:37:08;39.51;22.91
69938;DHT22;57248;47.320;15.998;2023-04-29T12:39:41;40.22;22.38
69938;DHT22;57248;47.320;15.998;2023-04-29T12:42:16;43.39;19.95
69938;DHT22;57248;47.320;15.998;2023-04-29T12:44:48;40.96;21.48
69938;DHT22;57248;47.320;15.998;2023-04-29T12:47:20;38.41;22.41
69938;DHT22;57248;47.320;15.998;2023-04-29T12:49:52;39.10;21.75
69938;DHT22;57248;47.320;15.998;2023-04-29T12:52:17;42.90;19.65
69938;DHT22;57248;47.320;15.998;2023-04-29T12:54:50;42.02;19.03
69938;DHT22;57248;47.320;15.998;2023-04-29T12:57:22;37.13;21.46
69938;DHT22;57248;47.320;15.998;2023-04-29T12:59:56;32.98;25.05
69938;DHT22;57248;47.320;15.998;2023-04-29T13:02:21;31.02;27.53
69938;DHT22;57248;47.320;15.998;2023-04-29T13:04:59;29.11;31.49
69938;DHT22;57248;47.320;15.998;2023-04-29T13:07:32;28.79;31.18
69938;DHT22;57248;47.320;15.998;2023-04-29T13:10:11;27.16;32.02
69938;DHT22;57248;47.320;15.998;2023-04-29T13:12:44;24.44;39.19
69938;DHT22;57248;47.320;15.998;2023-04-29T13:15:16;23.10;41.87
69938;DHT22;57248;47.320;15.998;2023-04-29T13:17:48;22.77;44.07
69938;DHT22;57248;47.320;15.998;2023-04-29T13:20:20;22.35;44.19
69938;DHT22;57248;47.320;15.998;2023-04-29T13:22:53;23.09;44.93
69938;DHT22;57248;47.320;15.998;2023-04-29T13:25:25;23.46;44.22
69938;DHT22;57248;47.320;15.998;2023-04-29T13:27:57;23.85;43.75
69938;DHT22;57248;47.320;15.998;2023-04-29T13:30:29;22.51;43.11
69938;DHT22;57248;47.320;15.998;2023-04-29T13:33:01;21.60;46.71
69938;DHT22;57248;47.320;15.998;2023-04-29T13:35:33;21.38;47.70
69938;DHT22;57248;47.320;15.998;2023-04-29T13:38:07;21.97;45.70
69938;DHT22;57248;47.320;15.998;2023-04-29T13:40:41;22.32;46.44
69938;DHT22;57248;47.320;15.998;2023-04-29T13:43:13;22.31;47.41
69938;DHT22;57248;47.320;15.998;2023-04-29T13:45:46;21.83;46.98
69938;DHT22;57248;47.320;15.998;2023-04-29T13:48:11;21.64;47.00
69938;DHT22;57248;47.320;15.998;2023-04-29T13:50:44;21.69;46.08
69938;DHT22;57248;47.320;15.998;2023-04-29T13:53:16;22.02;48.54
69938;DHT22;57248;47.320;15.998;2023-04-29T13:55:48;22.73;45.82
69938;DHT22;57248;47.320;15.998;2023-04-29T13:58:20;22.77;46.04
69938;DHT22;57248;47.320;15.998;2023-04-29T14:00:52;22.82;45.85
69938;DHT22;57248;47.320;15.998;2023-04-29T14:03:24;23.31;46.16
69938;DHT22;57248;47.320;15.998;2023-04-29T14:06:03;23.68;46.04
69938;DHT22;57248;47.320;15.998;2023-04-29T14:08:35;23.96;45.93
69938;DHT22;57248;47.320;15.998;2023-04-29T14:11:07;23.55;44.25
69938;DHT22;57248;47.320;15.998;2023-04-29T14:13:32;23.79;44.00
69938;DHT22;57248;47.320;15.998;2023-04-29T14:16:04;23.55;43.93
69938;DHT22;57248;47.320;15.998;2023-04-29T14:18:38;24.23;41.50
69938;DHT22;57248;47.320;15.998;2023-04-29T14:21:10;23.43;42.80
69938;DHT22;57248;47.320;15.998;2023-04-29T14:23:42;23.40;42.87
69938;DHT22;57248;47.320;15.998;2023-04-29T14:26:14;23.79;43.47
69938;DHT22;57248;47.320;15.998;2023-04-29T14:28:47;25.31;40.02
69938;DHT22;57248;47.320;15.998;2023-04-29T14:31:19;25.53;39.80
69938;DHT22;57248;47.320;15.998;2023-04-29T14:33:52;26.99;34.23
69938;DHT22;57248;47.320;15.998;2023-04-29T14:36:25;25.25;38.58
69938;DHT22;57248;47.320;15.998;2023-04-29T14:39:00;24.56;37.89
69938;DHT22;57248;47.320;15.998;2023-04-29T14:41:32;25.35;38.76
69938;DHT22;57248;47.320;15.998;2023-04-29T14:44:04;25.03;39.68
69938;DHT22;57248;47.320;15.998;2023-04-29T14:46:36;24.29;39.70
69938;DHT22;57248;47.320;15.998;2023-04-29T14:49:09;28.32;34.31
69938;DHT22;57248;47.320;15.998;2023-04-29T14:51:41;23.75;40.98
69938;DHT22;57248;47.320;15.998;2023-04-29T14:54:14;22.73;42.96
69938;DHT22;57248;47.320;15.998;2023-04-29T14:56:47;22.32;43.87
69938;DHT22;57248;47.320;15.998;2023-04-29T14:59:19;22.47;43.69
69938;DHT22;57248;47.320;15.998;2023-04-29T15:01:44;22.44;44.41
69938;DHT22;57248;47.320;15.998;2023-04-29T15:04:17;21.46;44.86
69938;DHT22;57248;47.320;15.998;2023-04-29T15:06:49;21.64;45.63
69938;DHT22;57248;47.320;15.998;2023-04-29T15:09:30;21.90;45.07
69938;DHT22;57248;47.320;15.998;2023-04-29T15:12:03;21.39;46.93
69938;DHT22;57248;47.320;15.998;2023-04-29T15:14:37;20.36;55.66
69938;DHT22;57248;47.320;15.998;2023-04-29T15:17:09;20.54;55.53
69938;DHT22;57248;47.320;15.998;2023-04-29T15:19:41;20.60;57.56
69938;DHT22;57248;47.320;15.998;2023-04-29T15:22:13;20.06;61.72
69938;DHT22;57248;47.320;15.998;2023-04-29T15:24:45;19.21;65.46
69938;DHT22;57248;47.320;15.998;2023-04-29T15:27:18;18.79;66.90
69938;DHT22;57248;47.320;15.998;2023-04-29T15:29:44;19.07;66.70
69938;DHT22;57248;47.320;15.998;2023-04-29T15:32:16;19.14;65.55
69938;DHT22;57248;47.320;15.998;2023-04-29T15:34:49;20.30;62.80
69938;DHT22;57248;47.320;15.998;2023-04-29T15:37:21;22.42;59.65
69938;DHT22;57248;47.320;15.998;2023-04-29T15:39:54;22.75;57.60
69938;DHT22;57248;47.320;15.998;2023-04-29T15:42:26;21.33;59.33
69938;DHT22;57248;47.320;15.998;2023-04-29T15:44:58;21.01;60.46
69938;DHT22;57248;47.320;15.998;2023-04-29T15:47:30;21.39;59.69
69938;DHT22;57248;47.320;15.998;2023-04-29T15:50:03;20.65;61.90
69938;DHT22;57248;47.320;15.998;2023-04-29T15:52:35;21.13;62.21
69938;DHT22;57248;47.320;15.998;2023-04-29T15:55:07;20.55;63.90
69938;DHT22;57248;47.320;15.998;2023-04-29T15:57:41;20.65;64.73
69938;DHT22;57248;47.320;15.998;2023-04-29T16:00:14;20.81;64.75
69938;DHT22;57248;47.320;15.998;2023-04-29T16:02:48;20.05;67.44
69938;DHT22;57248;47.320;15.998;2023-04-29T16:05:28;20.72;65.63
69938;DHT22;57248;47.320;15.998;2023-04-29T16:08:04;20.78;64.71
69938;DHT22;57248;47.320;15.998;2023-04-29T16:10:38;20.54;64.92
69938;DHT22;57248;47.320;15.998;2023-04-29T16:13:04;20.27;66.44
69938;DHT22;57248;47.320;15.998;2023-04-29T16:15:36;20.13;65.92
69938;DHT22;57248;47.320;15.998;2023-04-29T16:18:08;19.64;68.12
69938;DHT22;57248;47.320;15.998;2023-04-29T16:20:40;19.64;68.23
69938;DHT22;57248;47.320;15.998;2023-04-29T16:23:12;19.90;67.38
69938;DHT22;57248;47.320;15.998;2023-04-29T16:25:44;19.13;68.37